createdAt,value
2019-04-04T00:01:38.407Z,37.30
2019-04-04T00:04:08.566Z,37.30
2019-04-04T00:06:38.700Z,37.30
2019-04-04T00:09:11.237Z,37.30
2019-04-04T00:11:41.447Z,37.40
2019-04-04T00:14:13.013Z,37.30
2019-04-04T00:16:43.260Z,37.30
2019-04-04T00:19:13.322Z,37.30
2019-04-04T00:21:43.265Z,38.00
2019-04-04T00:24:13.436Z,37.40
2019-04-04T00:26:43.507Z,37.40
2019-04-04T00:29:16.869Z,37.40
2019-04-04T00:31:45.365Z,37.40
2019-04-04T00:34:15.358Z,37.40
2019-04-04T00:36:45.474Z,37.40
2019-04-04T00:39:15.586Z,37.40
2019-04-04T00:41:45.617Z,37.40
2019-04-04T00:44:16.008Z,37.40
2019-04-04T00:46:46.175Z,37.50
2019-04-04T00:49:16.375Z,37.50
2019-04-04T00:51:46.628Z,37.50
2019-04-04T00:54:16.631Z,37.60
2019-04-04T00:56:48.561Z,37.60
2019-04-04T00:59:18.708Z,37.60
2019-04-04T01:01:48.838Z,37.60
2019-04-04T01:04:18.911Z,37.60
2019-04-04T01:06:49.046Z,37.60
2019-04-04T01:09:19.070Z,37.70
2019-04-04T01:11:50.928Z,37.60
2019-04-04T01:14:20.831Z,37.60
2019-04-04T01:16:51.115Z,38.30
2019-04-04T01:19:21.135Z,37.60
2019-04-04T01:21:53.304Z,37.90
2019-04-04T01:24:23.034Z,37.70
2019-04-04T01:26:53.062Z,37.70
2019-04-04T01:29:23.334Z,37.60
2019-04-04T01:31:53.268Z,37.60
2019-04-04T01:34:23.447Z,37.60
2019-04-04T01:36:56.100Z,37.60
2019-04-04T01:39:25.257Z,37.60
2019-04-04T01:41:55.265Z,37.60
2019-04-04T01:44:25.194Z,37.70
2019-04-04T01:46:55.185Z,37.70
2019-04-04T01:49:25.127Z,37.70
2019-04-04T01:51:57.729Z,37.70
2019-04-04T01:54:26.999Z,37.70
2019-04-04T01:56:57.051Z,37.70
2019-04-04T01:59:26.974Z,37.70
2019-04-04T02:01:57.055Z,37.70
2019-04-04T02:04:27.227Z,37.60
2019-04-04T02:06:59.002Z,37.60
2019-04-04T02:09:28.799Z,37.60
2019-04-04T02:11:58.781Z,37.70
2019-04-04T02:14:28.783Z,37.70
2019-04-04T02:16:58.889Z,37.70
2019-04-04T02:19:28.929Z,37.70
2019-04-04T02:21:59.804Z,37.60
2019-04-04T02:24:31.819Z,37.60
2019-04-04T02:27:01.945Z,37.70
2019-04-04T02:29:31.935Z,37.70
2019-04-04T02:32:04.168Z,37.60
2019-04-04T02:34:37.476Z,37.60
2019-04-04T02:37:05.851Z,37.50
2019-04-04T02:39:36.053Z,37.60
2019-04-04T02:42:06.320Z,37.50
2019-04-04T02:44:36.574Z,37.50
2019-04-04T02:47:06.777Z,37.60
2019-04-04T02:49:36.855Z,37.60
2019-04-04T02:52:06.842Z,37.70
2019-04-04T02:54:36.942Z,37.70
2019-04-04T02:57:09.212Z,37.70
2019-04-04T02:59:38.735Z,37.70
2019-04-04T03:02:08.792Z,37.70
2019-04-04T03:04:39.933Z,37.70
2019-04-04T03:07:09.985Z,37.70
2019-04-04T03:09:43.354Z,38.40
2019-04-04T03:12:12.062Z,37.70
2019-04-04T03:14:42.199Z,37.80
2019-04-04T03:17:12.204Z,37.80
2019-04-04T03:19:43.762Z,37.70
2019-04-04T03:22:13.832Z,37.70
2019-04-04T03:24:45.128Z,37.80
2019-04-04T03:27:15.546Z,37.80
2019-04-04T03:29:45.535Z,37.70
2019-04-04T03:32:16.717Z,37.70
2019-04-04T03:34:49.834Z,37.70
2019-04-04T03:37:18.775Z,37.80
2019-04-04T03:39:51.753Z,37.70
2019-04-04T03:42:20.319Z,37.70
2019-04-04T03:44:53.268Z,37.60
2019-04-04T03:47:21.808Z,37.70
2019-04-04T03:49:56.590Z,37.80
2019-04-04T03:52:23.427Z,37.80
2019-04-04T03:54:56.202Z,37.70
2019-04-04T03:57:25.017Z,37.70
2019-04-04T03:59:55.046Z,37.80
2019-04-04T04:02:25.166Z,37.80
2019-04-04T04:04:55.289Z,37.80
2019-04-04T04:07:27.023Z,37.80
2019-04-04T04:09:59.801Z,37.90
2019-04-04T04:12:28.624Z,37.90
2019-04-04T04:14:58.600Z,38.00
2019-04-04T04:17:28.458Z,37.90
2019-04-04T04:20:03.478Z,37.90
2019-04-04T04:22:30.004Z,37.90
2019-04-04T04:25:03.482Z,37.90
2019-04-04T04:27:31.712Z,37.90
2019-04-04T04:30:06.180Z,37.90
2019-04-04T04:32:37.083Z,37.90
2019-04-04T04:35:08.636Z,37.90
2019-04-04T04:37:36.813Z,37.90
2019-04-04T04:40:06.884Z,38.00
2019-04-04T04:42:36.992Z,38.00
2019-04-04T04:45:11.160Z,37.90
2019-04-04T04:47:38.700Z,37.90
2019-04-04T04:50:09.940Z,37.90
2019-04-04T04:52:40.111Z,37.90
2019-04-04T04:55:11.974Z,37.90
2019-04-04T04:57:41.917Z,37.90
2019-04-04T05:00:14.011Z,37.90
2019-04-04T05:02:44.181Z,37.90
2019-04-04T05:05:14.797Z,37.90
2019-04-04T05:07:44.757Z,37.90
2019-04-04T05:10:15.624Z,37.90
2019-04-04T05:12:45.912Z,37.90
2019-04-04T05:15:15.954Z,37.90
2019-04-04T05:17:45.894Z,38.50
2019-04-04T05:20:16.074Z,37.90
2019-04-04T05:22:46.130Z,37.90
2019-04-04T05:25:16.168Z,37.90
2019-04-04T05:27:46.207Z,37.90
2019-04-04T05:30:16.766Z,37.90
2019-04-04T05:32:48.001Z,37.90
2019-04-04T05:35:17.878Z,38.00
2019-04-04T05:37:47.800Z,38.10
2019-04-04T05:40:17.955Z,38.10
2019-04-04T05:42:48.057Z,38.10
2019-04-04T05:45:18.194Z,38.10
2019-04-04T05:47:48.145Z,38.10
2019-04-04T05:50:18.264Z,38.10
2019-04-04T05:52:48.251Z,38.10
2019-04-04T05:55:18.179Z,38.10
2019-04-04T05:57:48.994Z,38.20
2019-04-04T06:00:19.912Z,38.60
2019-04-04T06:02:49.888Z,38.30
2019-04-04T06:05:20.026Z,38.30
2019-04-04T06:07:49.962Z,38.30
2019-04-04T06:10:19.944Z,38.30
2019-04-04T06:12:49.932Z,38.30
2019-04-04T06:15:20.010Z,38.40
2019-04-04T06:17:49.899Z,38.40
2019-04-04T06:20:20.074Z,38.40
2019-04-04T06:22:51.942Z,38.40
2019-04-04T06:25:21.701Z,38.40
2019-04-04T06:27:51.656Z,38.40
2019-04-04T06:30:21.764Z,38.40
2019-04-04T06:32:51.747Z,38.50
2019-04-04T06:35:21.728Z,38.50
2019-04-04T06:37:52.052Z,38.50
2019-04-04T06:40:22.342Z,38.40
2019-04-04T06:42:52.392Z,38.50
2019-04-04T06:45:22.406Z,38.50
2019-04-04T06:47:52.387Z,38.40
2019-04-04T06:50:22.271Z,38.40
2019-04-04T06:52:52.326Z,38.60
2019-04-04T06:55:22.420Z,38.60
2019-04-04T06:57:52.508Z,38.70
2019-04-04T07:00:22.550Z,38.60
2019-04-04T07:02:55.178Z,38.60
2019-04-04T07:05:24.486Z,38.50
2019-04-04T07:07:54.580Z,38.60
2019-04-04T07:10:24.743Z,38.70
2019-04-04T07:13:06.299Z,38.90
2019-04-04T07:15:26.326Z,38.90
2019-04-04T07:17:56.330Z,39.00
2019-04-04T07:20:28.418Z,39.00
2019-04-04T07:22:57.980Z,38.90
2019-04-04T07:25:28.084Z,38.90
2019-04-04T07:27:58.141Z,38.90
2019-04-04T07:30:28.472Z,38.80
2019-04-04T07:32:59.423Z,38.90
2019-04-04T07:35:29.483Z,38.90
2019-04-04T07:37:59.541Z,38.90
2019-04-04T07:40:29.659Z,38.80
2019-04-04T07:42:59.590Z,38.80
2019-04-04T07:45:29.550Z,38.90
2019-04-04T07:47:59.662Z,38.70
2019-04-04T07:50:29.571Z,38.60
2019-04-04T07:52:59.571Z,38.60
2019-04-04T07:55:29.573Z,38.60
2019-04-04T07:57:59.561Z,38.60
2019-04-04T08:00:29.688Z,38.50
2019-04-04T08:02:59.751Z,38.50
2019-04-04T08:05:29.758Z,38.50
2019-04-04T08:07:59.765Z,38.40
2019-04-04T08:10:29.739Z,38.50
2019-04-04T08:12:59.711Z,38.40
2019-04-04T08:15:30.106Z,38.40
2019-04-04T08:18:00.325Z,38.40
2019-04-04T08:20:30.321Z,38.50
2019-04-04T08:23:00.266Z,38.50
2019-04-04T08:25:30.320Z,38.50
2019-04-04T08:28:00.402Z,38.50
2019-04-04T08:30:30.358Z,38.50
2019-04-04T08:33:00.339Z,38.50
2019-04-04T08:35:30.345Z,38.40
2019-04-04T08:38:00.459Z,38.50
2019-04-04T08:40:30.383Z,38.60
2019-04-04T08:43:00.335Z,38.50
2019-04-04T08:45:30.430Z,38.50
2019-04-04T08:48:00.354Z,38.60
2019-04-04T08:50:30.343Z,38.60
2019-04-04T08:53:00.417Z,38.40
2019-04-04T08:55:30.407Z,38.50
2019-04-04T08:58:00.318Z,38.40
2019-04-04T09:00:30.448Z,38.40
2019-04-04T09:03:00.449Z,38.40
2019-04-04T09:05:30.468Z,38.40
2019-04-04T09:08:00.506Z,38.40
2019-04-04T09:10:30.510Z,38.50
2019-04-04T09:13:00.613Z,38.50
2019-04-04T09:15:30.745Z,38.50
2019-04-04T09:18:00.641Z,38.40
2019-04-04T09:20:30.932Z,38.40
2019-04-04T09:23:00.952Z,38.40
2019-04-04T09:25:31.085Z,38.60
2019-04-04T09:28:01.107Z,39.30
2019-04-04T09:30:31.213Z,38.60
2019-04-04T09:33:01.311Z,38.60
2019-04-04T09:35:31.355Z,38.70
2019-04-04T09:38:01.309Z,38.70
2019-04-04T09:40:31.472Z,38.60
2019-04-04T09:43:01.396Z,38.50
2019-04-04T09:45:31.505Z,38.70
2019-04-04T09:48:01.649Z,38.70
2019-04-04T09:50:31.679Z,38.70
2019-04-04T09:53:01.793Z,38.70
2019-04-04T09:55:31.831Z,38.80
2019-04-04T09:58:01.985Z,38.80
2019-04-04T10:00:32.272Z,38.70
2019-04-04T10:03:02.209Z,38.80
2019-04-04T10:05:32.593Z,38.90
2019-04-04T10:08:02.775Z,38.90
2019-04-04T10:10:32.870Z,39.00
2019-04-04T10:13:02.870Z,39.10
2019-04-04T10:15:33.198Z,39.00
2019-04-04T10:18:03.322Z,39.00
2019-04-04T10:20:33.522Z,39.10
2019-04-04T10:23:03.418Z,39.20
2019-04-04T10:25:33.476Z,39.20
2019-04-04T10:28:03.644Z,39.20
2019-04-04T10:30:33.643Z,39.10
2019-04-04T10:33:03.817Z,39.10
2019-04-04T10:35:33.875Z,39.10
2019-04-04T10:38:03.950Z,39.20
2019-04-04T10:40:34.016Z,39.30
2019-04-04T10:43:04.151Z,39.10
2019-04-04T10:45:34.296Z,39.10
2019-04-04T10:48:04.288Z,38.90
2019-04-04T10:50:34.200Z,38.90
2019-04-04T10:53:04.329Z,39.00
2019-04-04T10:55:34.496Z,39.00
2019-04-04T10:58:04.474Z,39.00
2019-04-04T11:00:34.449Z,39.00
2019-04-04T11:03:04.777Z,38.90
2019-04-04T11:05:35.465Z,39.00
2019-04-04T11:08:05.784Z,39.10
2019-04-04T11:10:35.986Z,38.90
2019-04-04T11:13:06.094Z,38.90
2019-04-04T11:15:36.208Z,38.90
2019-04-04T11:18:07.365Z,38.80
2019-04-04T11:20:37.403Z,38.90
2019-04-04T11:23:07.914Z,38.90
2019-04-04T11:25:38.091Z,38.90
2019-04-04T11:28:08.041Z,38.90
2019-04-04T11:30:38.191Z,38.90
2019-04-04T11:33:08.400Z,39.00
2019-04-04T11:35:38.504Z,39.00
2019-04-04T11:38:08.634Z,39.10
2019-04-04T11:40:38.734Z,39.10
2019-04-04T11:43:08.693Z,39.20
2019-04-04T11:45:38.617Z,39.20
2019-04-04T11:48:08.813Z,39.20
2019-04-04T11:50:40.041Z,39.30
2019-04-04T11:53:10.301Z,39.20
2019-04-04T11:55:40.442Z,39.20
2019-04-04T11:58:10.431Z,39.30
2019-04-04T12:00:42.045Z,39.20
2019-04-04T12:03:12.230Z,39.80
2019-04-04T12:05:42.234Z,39.60
2019-04-04T12:08:12.323Z,39.10
2019-04-04T12:10:42.375Z,39.10
2019-04-04T12:13:12.373Z,39.10
2019-04-04T12:15:42.275Z,39.10
2019-04-04T12:18:12.369Z,39.20
2019-04-04T12:20:43.478Z,39.20
2019-04-04T12:23:13.635Z,39.20
2019-04-04T12:25:43.673Z,39.20
2019-04-04T12:28:13.797Z,39.20
2019-04-04T12:30:43.702Z,39.80
2019-04-04T12:33:13.687Z,39.30
2019-04-04T12:35:43.672Z,39.30
2019-04-04T12:38:13.622Z,39.30
2019-04-04T12:40:43.763Z,39.20
2019-04-04T12:43:13.735Z,39.20
2019-04-04T12:45:43.730Z,39.20
2019-04-04T12:48:13.785Z,39.20
2019-04-04T12:53:32.807Z,39.20
2019-04-04T12:56:03.039Z,39.20
2019-04-04T12:58:33.041Z,39.20
2019-04-04T13:01:02.956Z,39.20
2019-04-04T13:03:33.072Z,39.30
2019-04-04T13:06:02.994Z,39.20
2019-04-04T13:08:32.949Z,39.20
2019-04-04T13:11:03.198Z,39.30
2019-04-04T13:13:33.162Z,39.20
2019-04-04T13:16:03.201Z,39.20
2019-04-04T13:18:33.365Z,39.30
2019-04-04T13:21:03.440Z,39.30
2019-04-04T13:23:33.360Z,39.40
2019-04-04T13:26:03.548Z,39.40
2019-04-04T13:28:33.593Z,39.40
2019-04-04T13:31:03.677Z,39.40
2019-04-04T13:33:33.706Z,39.50
2019-04-04T13:36:03.829Z,39.50
2019-04-04T13:38:33.800Z,39.60
2019-04-04T13:41:03.863Z,39.70
2019-04-04T13:43:33.845Z,40.40
2019-04-04T13:46:03.784Z,39.60
2019-04-04T13:48:33.857Z,39.80
2019-04-04T13:51:03.982Z,40.40
2019-04-04T13:53:33.862Z,39.80
2019-04-04T13:56:03.898Z,39.80
2019-04-04T13:58:33.881Z,39.80
2019-04-04T14:01:04.047Z,39.90
2019-04-04T14:03:34.055Z,39.90
2019-04-04T14:06:04.121Z,40.00
2019-04-04T14:08:34.100Z,40.60
2019-04-04T14:11:04.244Z,39.90
2019-04-04T14:13:34.319Z,40.00
2019-04-04T14:16:04.560Z,39.90
2019-04-04T14:18:39.937Z,40.00
2019-04-04T14:21:07.335Z,40.10
2019-04-04T14:23:37.327Z,40.00
2019-04-04T14:26:07.361Z,40.10
2019-04-04T14:28:37.472Z,40.20
2019-04-04T14:31:07.699Z,40.20
2019-04-04T14:33:37.780Z,40.10
2019-04-04T14:36:07.801Z,40.20
2019-04-04T14:38:37.813Z,40.30
2019-04-04T14:41:11.538Z,40.30
2019-04-04T14:43:39.840Z,40.30
2019-04-04T14:46:10.064Z,40.30
2019-04-04T14:48:42.222Z,40.20
2019-04-04T14:51:11.756Z,40.10
2019-04-04T14:53:41.813Z,40.20
2019-04-04T14:56:11.745Z,40.20
2019-04-04T14:58:41.779Z,40.20
2019-04-04T15:01:11.748Z,40.20
2019-04-04T15:03:42.353Z,40.30
2019-04-04T15:06:12.449Z,40.20
2019-04-04T15:08:42.444Z,40.30
2019-04-04T15:11:23.488Z,40.20
2019-04-04T15:13:44.208Z,40.20
2019-04-04T15:16:18.329Z,40.20
2019-04-04T15:18:48.369Z,40.10
2019-04-04T15:21:18.540Z,40.20
2019-04-04T15:23:48.599Z,40.30
2019-04-04T15:26:18.705Z,40.30
2019-04-04T15:28:48.747Z,40.70
2019-04-04T15:31:18.815Z,40.30
2019-04-04T15:33:50.494Z,40.30
2019-04-04T15:36:39.544Z,40.30
2019-04-04T15:39:09.630Z,40.00
2019-04-04T15:41:39.913Z,40.40
2019-04-04T15:44:10.146Z,40.40
2019-04-04T15:46:40.204Z,40.40
2019-04-04T15:49:10.263Z,40.20
2019-04-04T15:51:40.186Z,40.40
2019-04-04T15:54:10.315Z,40.20
2019-04-04T15:56:40.518Z,40.20
2019-04-04T15:59:10.499Z,40.80
2019-04-04T16:01:40.526Z,40.10
2019-04-04T16:04:10.628Z,40.20
2019-04-04T16:06:40.696Z,40.10
2019-04-04T16:09:10.805Z,40.10
2019-04-04T16:11:49.267Z,40.10
2019-04-04T16:14:12.626Z,40.10
2019-04-04T16:16:42.616Z,40.00
2019-04-04T16:19:12.652Z,40.00
2019-04-04T16:21:42.801Z,40.00
2019-04-04T16:24:12.859Z,40.00
2019-04-04T16:26:42.837Z,40.10
2019-04-04T16:29:12.842Z,40.10
2019-04-04T16:31:42.908Z,40.20
2019-04-04T16:34:12.910Z,40.10
2019-04-04T16:36:42.994Z,40.10
2019-04-04T16:39:12.973Z,40.00
2019-04-04T16:41:43.024Z,40.10
2019-04-04T16:44:12.945Z,40.00
2019-04-04T16:46:42.925Z,40.00
2019-04-04T16:49:12.939Z,39.90
2019-04-04T16:51:42.996Z,39.80
2019-04-04T16:54:13.060Z,39.80
2019-04-04T16:56:43.211Z,39.80
2019-04-04T16:59:13.155Z,39.70
2019-04-04T17:01:43.136Z,39.80
2019-04-04T17:04:13.358Z,39.60
2019-04-04T17:06:43.344Z,39.60
2019-04-04T17:09:13.404Z,39.60
2019-04-04T17:11:43.540Z,39.60
2019-04-04T17:14:13.585Z,39.70
2019-04-04T17:16:43.585Z,39.70
2019-04-04T17:19:13.776Z,39.70
2019-04-04T17:21:43.778Z,39.80
2019-04-04T17:24:13.873Z,39.70
2019-04-04T17:26:43.895Z,40.20
2019-04-04T17:29:13.912Z,39.90
2019-04-04T17:31:44.528Z,40.00
2019-04-04T17:34:14.780Z,40.00
2019-04-04T17:36:44.822Z,40.10
2019-04-04T17:39:15.073Z,40.10
2019-04-04T17:41:45.626Z,40.20
2019-04-04T17:44:15.743Z,40.30
2019-04-04T17:46:46.010Z,40.30
2019-04-04T17:49:16.024Z,40.40
2019-04-04T17:51:46.050Z,40.50
2019-04-04T17:54:16.495Z,40.50
2019-04-04T17:56:46.628Z,40.50
2019-04-04T17:59:16.681Z,40.60
2019-04-04T18:01:46.648Z,40.60
2019-04-04T18:04:16.571Z,40.70
2019-04-04T18:06:46.708Z,40.60
2019-04-04T18:09:16.862Z,40.60
2019-04-04T18:11:47.060Z,40.70
2019-04-04T18:14:17.000Z,40.60
2019-04-04T18:16:47.046Z,40.60
2019-04-04T18:19:17.110Z,40.60
2019-04-04T18:21:47.127Z,40.60
2019-04-04T18:24:17.219Z,40.60
2019-04-04T18:26:47.320Z,41.30
2019-04-04T18:29:17.283Z,40.50
2019-04-04T18:31:47.397Z,40.50
2019-04-04T18:34:17.865Z,40.50
2019-04-04T18:36:47.941Z,40.60
2019-04-04T18:39:18.016Z,40.50
2019-04-04T18:41:49.118Z,40.60
2019-04-04T18:44:19.202Z,40.50
2019-04-04T18:46:49.325Z,40.50
2019-04-04T18:49:19.463Z,40.60
2019-04-04T18:51:49.517Z,40.60
2019-04-04T18:54:19.466Z,40.70
2019-04-04T18:56:49.451Z,40.60
2019-04-04T18:59:19.411Z,40.60
2019-04-04T19:01:49.522Z,40.60
2019-04-04T19:04:19.875Z,41.20
2019-04-04T19:06:50.303Z,40.60
2019-04-04T19:09:20.755Z,40.60
2019-04-04T19:11:52.466Z,40.60
2019-04-04T19:14:22.520Z,40.60
2019-04-04T19:16:52.517Z,40.60
2019-04-04T19:19:24.802Z,40.70
2019-04-04T19:21:55.218Z,40.70
2019-04-04T19:24:26.447Z,40.70
2019-04-04T19:26:56.573Z,40.80
2019-04-04T19:29:26.743Z,40.80
2019-04-04T19:31:56.784Z,40.90
2019-04-04T19:34:27.020Z,40.80
2019-04-04T19:36:57.761Z,40.90
2019-04-04T19:39:28.343Z,40.90
2019-04-04T19:41:58.670Z,40.90
2019-04-04T19:44:29.058Z,40.80
2019-04-04T19:46:59.270Z,40.80
2019-04-04T19:49:29.306Z,40.80
2019-04-04T19:51:59.091Z,40.70
2019-04-04T19:54:28.946Z,40.70
2019-04-04T19:56:58.904Z,40.70
2019-04-04T19:59:28.009Z,40.70
2019-04-04T20:01:57.953Z,40.60
2019-04-04T20:04:28.155Z,40.60
2019-04-04T20:06:57.927Z,40.50
2019-04-04T20:09:27.791Z,40.40
2019-04-04T20:11:57.711Z,40.50
2019-04-04T20:14:29.058Z,40.40
2019-04-04T20:16:59.292Z,40.40
2019-04-04T20:19:31.311Z,40.40
2019-04-04T20:22:00.768Z,40.40
2019-04-04T20:24:30.928Z,40.30
2019-04-04T20:27:00.754Z,40.20
2019-04-04T20:29:30.673Z,40.30
2019-04-04T20:32:00.457Z,40.20
2019-04-04T20:34:30.321Z,40.10
2019-04-04T20:37:00.381Z,40.10
2019-04-04T20:39:30.192Z,40.00
2019-04-04T20:41:59.990Z,40.00
2019-04-04T20:44:29.972Z,40.00
2019-04-04T20:46:59.874Z,40.00
2019-04-04T20:49:29.700Z,39.90
2019-04-04T20:51:59.629Z,39.90
2019-04-04T20:54:29.407Z,39.80
2019-04-04T20:56:59.294Z,39.80
2019-04-04T20:59:29.146Z,39.80
2019-04-04T21:01:59.064Z,40.40
2019-04-04T21:04:28.879Z,39.80
2019-04-04T21:06:58.836Z,39.80
2019-04-04T21:09:28.912Z,39.70
2019-04-04T21:11:59.079Z,39.70
2019-04-04T21:14:29.111Z,39.60
2019-04-04T21:16:59.898Z,39.60
2019-04-04T21:19:29.814Z,39.60
2019-04-04T21:21:59.901Z,39.50
2019-04-04T21:24:29.957Z,39.50
2019-04-04T21:27:00.081Z,39.40
2019-04-04T21:29:30.221Z,39.50
2019-04-04T21:32:00.218Z,39.50
2019-04-04T21:34:30.154Z,39.40
2019-04-04T21:37:00.269Z,39.30
2019-04-04T21:39:30.315Z,39.30
2019-04-04T21:42:00.275Z,39.30
2019-04-04T21:44:30.361Z,39.30
2019-04-04T21:47:00.416Z,39.20
2019-04-04T21:49:30.356Z,39.10
2019-04-04T21:52:00.351Z,39.20
2019-04-04T21:54:30.317Z,39.10
2019-04-04T21:57:00.329Z,39.20
2019-04-04T21:59:30.391Z,39.10
2019-04-04T22:02:12.888Z,39.00
2019-04-04T22:04:43.261Z,39.10
2019-04-04T22:07:13.518Z,38.60
2019-04-04T22:09:43.901Z,39.00
2019-04-04T22:12:14.138Z,39.00
2019-04-04T22:14:44.415Z,38.90
2019-04-04T22:17:14.680Z,38.90
2019-04-04T22:19:44.794Z,38.90
2019-04-04T22:22:15.051Z,38.80
2019-04-04T22:24:45.356Z,38.80
2019-04-04T22:27:15.607Z,38.80
2019-04-04T22:29:45.786Z,38.70
2019-04-04T22:32:15.724Z,38.70
2019-04-04T22:34:45.749Z,38.70
2019-04-04T22:37:15.830Z,38.70
2019-04-04T22:39:45.850Z,39.40
2019-04-04T22:42:15.847Z,38.70
2019-04-04T22:44:46.011Z,38.70
2019-04-04T22:47:16.156Z,38.70
2019-04-04T22:49:46.078Z,38.70
2019-04-04T22:52:16.234Z,38.70
2019-04-04T22:54:46.140Z,38.60
2019-04-04T22:57:16.106Z,38.60
2019-04-04T22:59:46.096Z,38.60
2019-04-04T23:02:16.150Z,38.60
2019-04-04T23:04:46.167Z,38.70
2019-04-04T23:07:16.157Z,38.70
2019-04-04T23:09:46.084Z,38.60
2019-04-04T23:12:15.971Z,38.60
2019-04-04T23:14:48.271Z,38.60
2019-04-04T23:17:17.585Z,38.60
2019-04-04T23:19:47.628Z,38.60
2019-04-04T23:22:17.631Z,38.60
2019-04-04T23:24:47.574Z,38.60
2019-04-04T23:27:17.603Z,38.50
2019-04-04T23:29:47.639Z,38.60
2019-04-04T23:32:17.692Z,38.50
2019-04-04T23:34:47.880Z,38.60
2019-04-04T23:37:17.992Z,38.40
2019-04-04T23:39:47.911Z,38.60
2019-04-04T23:42:17.840Z,38.60
2019-04-04T23:44:59.900Z,38.50
2019-04-04T23:47:19.722Z,38.50
2019-04-04T23:49:49.651Z,38.60
2019-04-04T23:52:19.520Z,38.50
2019-04-04T23:54:49.499Z,38.50
2019-04-04T23:57:19.460Z,38.50
2019-04-04T23:59:49.367Z,38.50
